July 2, 2022

Time Code Weather Temp. Visibility Ceiling Wind METAR/SPECI
8:00 pm
L
54 °F 4 mi 400 ft 020° 020° 12 kt METAR CYYC 030200Z 02012KT 4SM BR BKN004 OVC013 12/11 A3008 RMK ST6SC2 VIS SW 8 SLP201 DENSITY ALT 4000FT
7:32 pm
I
55 °F 5 mi 700 ft 010° 010° 12 kt METAR CYYC 030132Z 01012KT 5SM BR BKN007 OVC015 13/12 A3007 RMK SF5SC3 VIS SW 10 SLP199 DENSITY ALT 4100FT
7:00 pm
M
55 °F 9 mi 2,700 ft 010° 010° 12 kt METAR CYYC 030100Z 01012KT 9SM -SHRA BR SCT010 BKN027 OVC066 13/12 A3007 RMK CF4SC3AC1 CVCTV CLD EMBD SLP195 DENSITY ALT 4100FT
6:43 pm
I
57 °F 9 mi 700 ft 360° 360° 13 kt METAR CYYC 030043Z 36013KT 9SM -SHRA BR BKN007 OVC066 14/12 A3006 RMK CF7AC1 CVCTV CLD EMBD SLP194 DENSITY ALT 4200FT
6:32 pm
V
59 °F 6 mi 4,500 ft 020° 020° 9 kt METAR CYYC 030032Z 02009KT 360V080 6SM -SHRA BR FEW007 BKN045CB OVC066 15/13 A3006 RMK CF2CB4AC2 CB ALQDS MOVG E SLP193 DENSITY ALT 4300FT
6:23 pm
I
59 °F 2½ mi 4,900 ft 080° 080° 9 kt METAR CYYC 030023Z 08009KT 2 1/2SM -TSRA BR FEW017 BKN049CB BKN069 OVC089 15/13 A3006 RMK SC2CB4AC1AS1 TS SE MOVG E SLP190 DENSITY ALT 4300FT
6:00 pm
V
59 °F 8 mi 6,800 ft 070° 070° 7 kt METAR CYYC 030000Z 07007KT 8SM -TSRA SCT017 OVC068 15/12 A3008 RMK SC4AC4 TS W MOVG E / CB CLD EMBD SLP199 DENSITY ALT 4300FT
5:42 pm
M
59 °F 10 mi 1,700 ft 070° 070° 8 kt METAR CYYC 022342Z 07008KT 10SM -TSRA BKN017 OVC054 15/11 A3007 RMK SC4SC4 OCNL LTGIC W / CB CLD EMBD SLP196 DENSITY ALT 4300FT
5:24 pm
V
59 °F 12 mi 6,300 ft 070° 070° 11 kt METAR CYYC 022324Z 07011KT 12SM TS SCT017 SCT030 BKN063 15/11 A3006 RMK SC3SC1SC3 VIS W LWR / SH DIST W / OCNL LTGN DIST W / CB CLD EMBD SLP192 DENSITY ALT 4300FT
5:00 pm
V
59 °F 12 mi 3,000 ft 070° 070° 12 kt METAR CYYC 022300Z 07012KT 12SM SCT018 BKN030 OVC056 15/11 A3007 RMK SC4SC3SC1 SH DIST SW-NW SLP193 DENSITY ALT 4400FT
4:00 pm
M
61 °F 15 mi 2,300 ft 100° 100° 10 kt METAR CYYC 022200Z 10010KT 15SM BKN023 OVC045 16/11 A3006 RMK SC5SC3 SH DIST NE SLP191 DENSITY ALT 4400FT
3:00 pm
V
63 °F 15 mi 3,000 ft 070° 070° 5 kt METAR CYYC 022100Z 07005KT 020V110 15SM OVC030 17/10 A3005 RMK SC8 SLP185 DENSITY ALT 4600FT
2:00 pm
V
61 °F 15 mi 3,700 ft 090° 090° 6 kt METAR CYYC 022000Z 09006KT 15SM BKN037 16/10 A3006 RMK SC7 SLP188 DENSITY ALT 4500FT
1:00 pm
V
59 °F 15 mi 3,100 ft 080° 080° 6 kt METAR CYYC 021900Z 08006KT 060V160 15SM BKN031 15/11 A3006 RMK SC7 SLP190 DENSITY ALT 4400FT
12:00 pm
M
57 °F 15 mi 2,800 ft 140° 140° 4 kt METAR CYYC 021800Z 14004KT 060V150 15SM FEW015 OVC028 14/10 A3007 RMK CF1SC7 SLP193 DENSITY ALT 4300FT
11:00 am
M
57 °F 12 mi 2,200 ft Var 000° 0 kt METAR CYYC 021700Z 00000KT 12SM BKN022 OVC030 14/10 A3007 RMK SC6SC2 SLP194 DENSITY ALT 4200FT
10:00 am
M
55 °F 10 mi 2,000 ft 330° 330° 3 kt METAR CYYC 021600Z 33003KT 320V020 10SM SCT011 OVC020 13/10 A3008 RMK SF4SC4 SLP197 DENSITY ALT 4100FT
9:00 am
M
54 °F 10 mi 1,500 ft 030° 030° 3 kt METAR CYYC 021500Z 03003KT 010V090 10SM SCT009 OVC015 12/11 A3008 RMK SF4SC4 SLP193 DENSITY ALT 4000FT
8:00 am
I
54 °F 10 mi 700 ft 090° 090° 5 kt METAR CYYC 021400Z 09005KT 040V110 10SM BKN007 OVC025 12/10 A3008 RMK ST6SC2 SLP192 DENSITY ALT 3900FT
7:00 am
I
54 °F 10 mi 900 ft 030° 030° 5 kt METAR CYYC 021300Z 03005KT 340V040 10SM BKN009 BKN026 OVC094 12/10 A3010 RMK ST5SC2AC1 SLP198 DENSITY ALT 3900FT
6:00 am
M
52 °F 10 mi 2,200 ft 340° 340° 4 kt METAR CYYC 021200Z 34004KT 10SM OVC022 11/09 A3010 RMK SC8 SLP204 DENSITY ALT 3800FT
5:00 am
M
52 °F 7 mi 2,000 ft Var Var 2 kt METAR CYYC 021100Z VRB02KT 7SM BKN020 BKN098 OVC140 11/10 A3010 RMK SC5AC2AC1 SLP203 DENSITY ALT 3900FT
4:00 am
V
52 °F 10 mi 11,000 ft 190° 190° 3 kt METAR CYYC 021000Z 19003KT 10SM BKN110 11/09 A3010 RMK AC6 SLP204 DENSITY ALT 3800FT
3:00 am
V
54 °F 10 mi 15,000 ft 310° 310° 3 kt METAR CYYC 020900Z 31003KT 250V040 10SM FEW064 BKN150 BKN240 12/10 A3009 RMK SC1AC5CI1 SC TR CI TR SLP196 DENSITY ALT 4000FT
2:00 am
V
54 °F 10 mi 5,800 ft Var Var 2 kt METAR CYYC 020800Z VRB02KT 10SM BKN058 12/10 A3010 RMK SC5 VIRGA W SLP193 DENSITY ALT 3900FT
1:00 am
V
54 °F 7 mi 9,400 ft 320° 320° 7 kt METAR CYYC 020700Z 32007KT 7SM VCSH SCT063 BKN094 12/10 A3012 RMK SC3AC4 SH S - W SLP200 DENSITY ALT 3900FT
12:00 am
V
54 °F 7 mi 8,200 ft 010° 010° 10 - 16 kt METAR CYYC 020600Z 01010G16KT 7SM VCSH FEW029 BKN082 BKN160 12/10 A3011 RMK SC1AC5AC2 SC TR SH SE SLP196 DENSITY ALT 4000FT

July 1, 2022

Time Code Weather Temp. Visibility Ceiling Wind METAR/SPECI
11:00 pm
M
57 °F 7 mi 2,200 ft 010° 010° 15 - 21 kt METAR CYYC 020500Z 01015G21KT 7SM BKN022 OVC074 14/11 A3010 RMK SC5AC3 SLP191 DENSITY ALT 4100FT
10:55 pm
V
57 °F 7 mi 7,500 ft 020° 020° 16 kt METAR CYYC 020455Z 02016KT 7SM SCT018 BKN075 OVC110 14/11 A3009 RMK SC3AC4AC1 SLP189 DENSITY ALT 4200FT
10:00 pm
V
57 °F 7 mi 7,200 ft 010° 010° 13 kt METAR CYYC 020400Z 01013KT 7SM -TSRA FEW018CB BKN072 14/11 A3007 RMK CB1AC5 VIS VRB 5 - 10 / TS N MOVG E OCNL LTGCG SLP184 DENSITY ALT 4300FT
9:37 pm
V
59 °F 7 mi 7,500 ft 020° 020° 10 kt METAR CYYC 020337Z 02010KT 7SM -TSRA FEW016CB BKN075 15/12 A3006 RMK CB1AC7 CB TR VIS VRB 5 - 10 / OCNL LTGCG NW SLP179 DENSITY ALT 4300FT
9:18 pm
V
61 °F 7 mi 7,100 ft 360° 360° 11 kt METAR CYYC 020318Z 36011KT 7SM -SHRA OVC071 16/10 A3005 RMK AC8 CVCTV CLD EMBD SLP176 DENSITY ALT 4500FT
9:00 pm
V
63 °F 7 mi 7,900 ft 340° 340° 7 kt METAR CYYC 020300Z 34007KT 7SM BKN079 17/10 A3004 RMK AC7 VIRGA ALQDS / CVCTV CLD EMBD SLP172 DENSITY ALT 4600FT
8:00 pm
V
66 °F 7 mi 10,000 ft 330° 330° 5 kt METAR CYYC 020200Z 33005KT 7SM BKN100 19/09 A3002 RMK AC6 SLP168 DENSITY ALT 4800FT
7:00 pm
V
64 °F 12 mi 13,000 ft 340° 340° 4 kt METAR CYYC 020100Z 34004KT 12SM FEW070CB BKN130 BKN190 18/11 A3001 RMK CB1AC4AC1 AC TR SH DIST NE / CB NE MOVG E SLP169 DENSITY ALT 4800FT
6:20 pm
V
64 °F 12 mi 14,000 ft 360° 360° 6 kt METAR CYYC 020020Z 36006KT 12SM VCSH FEW021 SCT070CB BKN140 BKN180 18/12 A3002 RMK CF1CB3AC3AC1 CF TR AC TR SH N-S / CB NE MOVG E SLP174 DENSITY ALT 4700FT
6:00 pm
V
61 °F 15 mi 7,000 ft 010° 010° 2 kt METAR CYYC 020000Z 01002KT 15SM -TSRA FEW021 FEW035CB BKN070CB BKN120 16/12 A3003 RMK CF1CB1CB3AC2 TS N-E MOVG E SLP177 DENSITY ALT 4500FT
5:44 pm
V
59 °F 12 mi 6,800 ft 340° 340° 5 kt METAR CYYC 012344Z 34005KT 12SM -TSRA FEW035CB BKN068CB BKN093 15/12 A3003 RMK CB2CB4AC1 TS OVRHD+N-E MOVG E SLP181 DENSITY ALT 4400FT
5:33 pm
V
61 °F 12 mi 6,800 ft 020° 020° 9 kt METAR CYYC 012333Z 02009KT 12SM -SHRA FEW020 SCT034CB BKN068CB BKN087 16/11 A3003 RMK CF1CB3CB3AC1 CF TR CB OVRHD MOVG E SLP180 DENSITY ALT 4400FT
5:00 pm
V
59 °F 6 mi 3,300 ft 160° 160° 4 kt METAR CYYC 012300Z 16004KT 110V230 6SM -TSRA FEW020 BKN033CB BKN085 15/11 A3002 RMK CF1CB6AC1 CF TR TS OVRHD MOVG E OCNL LTGIC PRESFR SLP175 DENSITY ALT 4400FT
4:43 pm
V
59 °F 5 mi 3,300 ft Var 000° 0 kt METAR CYYC 012243Z 00000KT 5SM TSRA FEW020 BKN033CB BKN085 15/08 A3004 RMK CF1CB6AC1 CF TR TS OVRHD MOVG E OCNL LTGIC SLP184 DENSITY ALT 4300FT
4:20 pm
V
61 °F 10 mi 6,500 ft 210° 210° 13 kt METAR CYYC 012220Z 21013KT 10SM -TSRA BKN065CB BKN095 16/09 A3003 RMK CB6AC1 TS OVRHD MOVG SE /R10/ SLP174 DENSITY ALT 4500FT
4:05 pm
V
61 °F 15 mi 6,700 ft 180° 180° 10 kt METAR CYYC 012205Z 18010KT 15SM -SHRA FEW011 BKN067CB BKN090 16/11 A3002 RMK CF1CB6AC1 CF TR CB OVRHD MOVG SE SLP173 DENSITY ALT 4400FT
3:51 pm
V
61 °F 8 mi 5,000 ft 150° 150° 4 - 17 kt METAR CYYC 012151Z 15004G17KT 8SM R17R/5000VP6000FT/U -TSRA FEW011 BKN050CB 16/08 A3003 RMK CF1CB6 TS OVRHD MOVG SE / SHGS / OCNL LGTIC PRESRR SLP176 DENSITY ALT 4500FT
3:41 pm
V
66 °F 15 mi 5,900 ft 200° 200° 14 kt METAR CYYC 012141Z 20014KT 15SM -SHRA FEW049CB BKN059TCU BKN100 BKN120 19/10 A3001 RMK CB2TCU3AC1AC1 CB SW+NW MOVG SE SLP165 DENSITY ALT 4800FT
3:34 pm
V
68 °F 20 mi 5,900 ft 190° 190° 15 - 20 kt METAR CYYC 012134Z 19015G20KT 20SM FEW049CB BKN059TCU BKN100 BKN120 20/10 A3001 RMK CB2TCU3AC1AC1 SH DIST SW / CB SW+NW MOVG SE SLP163 DENSITY ALT 5000FT
3:21 pm
V
70 °F 15 mi 7,400 ft 170° 170° 9 kt METAR CYYC 012121Z 17009KT 15SM TS VCSH SCT049CB BKN074TCU BKN096 BKN120 21/10 A3001 RMK CB3TCU2AC1AC1 TS E-S MOVG SE / SH NW+SE-S SLP163 DENSITY ALT 5100FT
3:00 pm
V
64 °F 20 mi 7,400 ft 120° 120° 4 - 17 kt METAR CYYC 012100Z 12004G17KT 090V180 20SM -TSRA SCT049CB BKN074TCU BKN110 18/07 A3001 RMK CB4TCU2AC1 TS OVRHD+S MOVG E SLP163 DENSITY ALT 4800FT
2:48 pm
V
66 °F 15 mi 8,300 ft 320° 320° 7 - 27 kt METAR CYYC 012048Z 32007G27KT 260V070 15SM -TSRA SCT057CB BKN083TCU BKN110 19/05 A3001 RMK CB4TCU1AC1 TS OVRHD MOVG E SLP163 DENSITY ALT 4800FT
2:42 pm
V
68 °F 20 mi 6,900 ft 320° 320° 16 kt METAR CYYC 012042Z 32016KT 310V060 20SM -SHRA SCT059CB BKN069TCU BKN110 20/11 A3000 RMK CB4TCU1AC1 CB OVRHD+S MOVG E SLP160 DENSITY ALT 5000FT
2:00 pm
V
72 °F 20 mi 12,000 ft 070° 070° 11 kt METAR CYYC 012000Z 07011KT 360V100 20SM SCT063TCU SCT092 BKN120 22/07 A3001 RMK TCU3AC1AC1 SH DIST SW SLP157 DENSITY ALT 5200FT
1:00 pm
V
73 °F 30 mi - 020° 020° 7 kt METAR CYYC 011900Z 02007KT 350V060 30SM FEW060TCU SCT130 23/07 A3001 RMK TCU2AC1 VIRGA SW-W / CB ASOCTD W MOVG SE SLP157 DENSITY ALT 5200FT
12:00 pm
V
72 °F 30 mi - 360° 360° 8 kt METAR CYYC 011800Z 36008KT 30SM FEW065TCU SCT130 22/08 A3001 RMK TCU2AC1 SH DIST SW+NW / CB ASOCTD W-NW MOVG SE SLP160 DENSITY ALT 5200FT
11:00 am
V
72 °F 30 mi - 330° 330° 8 kt METAR CYYC 011700Z 33008KT 320V040 30SM FEW060TCU SCT130 22/07 A3001 RMK TCU1AC3 VIRGA N SLP156 DENSITY ALT 5200FT
10:00 am
V
68 °F 30 mi - 210° 210° 4 kt METAR CYYC 011600Z 21004KT 30SM FEW080 SCT130 20/08 A3001 RMK ACC1AC2 TCU ASOCTD W SLP160 DENSITY ALT 4900FT
9:00 am
V
64 °F 35 mi - 220° 220° 5 kt METAR CYYC 011500Z 22005KT 35SM FEW080 SCT130 18/09 A3002 RMK AC1AC3 SLP163 DENSITY ALT 4700FT
8:00 am
V
61 °F 30 mi - 230° 230° 5 kt METAR CYYC 011400Z 23005KT 30SM SCT130 16/08 A3002 RMK AC4 SLP166 DENSITY ALT 4400FT
7:00 am
V
55 °F 20 mi - 190° 190° 3 kt METAR CYYC 011300Z 19003KT 20SM FEW094 SCT130 13/10 A3002 RMK AC1AC2 HZ SLP168 DENSITY ALT 4100FT
6:00 am
V
54 °F 10 mi 13,000 ft 250° 250° 3 kt METAR CYYC 011200Z 25003KT 10SM FEW098 BKN130 12/09 A3003 RMK AC2AC3 SLP173 DENSITY ALT 4000FT
5:00 am
V
54 °F 10 mi - 200° 200° 2 kt METAR CYYC 011100Z 20002KT 10SM SCT120 12/08 A3004 RMK AC4 SLP176 DENSITY ALT 4000FT
4:00 am
V
55 °F 10 mi 9,400 ft 210° 210° 3 kt METAR CYYC 011000Z 21003KT 10SM BKN094 13/09 A3005 RMK AC5 SLP178 DENSITY ALT 4200FT
3:00 am
V
59 °F 10 mi 12,000 ft 220° 220° 2 kt METAR CYYC 010900Z 22002KT 10SM BKN120 15/09 A3007 RMK AC6 SLP184 DENSITY ALT 4300FT
2:58 am
V
59 °F 10 mi 12,000 ft 230° 230° 3 kt METAR CYYC 010858Z 23003KT 210V280 10SM BKN120 15/09 A3007 RMK AC6 SLP184 DENSITY ALT 4300FT
2:00 am
V
61 °F 10 mi 12,000 ft 220° 220° 5 kt METAR CYYC 010800Z 22005KT 10SM BKN120 16/09 A3007 RMK AC6 SLP183 DENSITY ALT 4400FT
1:00 am
V
61 °F 10 mi 11,000 ft 190° 190° 3 kt METAR CYYC 010700Z 19003KT 10SM BKN110 16/09 A3009 RMK AC6 SLP189 DENSITY ALT 4400FT
12:00 am
V
61 °F 10 mi 11,000 ft 150° 150° 4 kt METAR CYYC 010600Z 15004KT 10SM BKN110 16/08 A3010 RMK AC5 SLP195 DENSITY ALT 4400FT

June 30, 2022

Time Code Weather Temp. Visibility Ceiling Wind METAR/SPECI
11:00 pm
V
63 °F 10 mi - 120° 120° 3 kt METAR CYYC 010500Z 12003KT 10SM SCT110 17/08 A3011 RMK AC4 SLP197 DENSITY ALT 4500FT
10:00 pm
V
63 °F 10 mi - 110° 110° 5 kt METAR CYYC 010400Z 11005KT 10SM FEW094 FEW260 17/08 A3011 RMK AC2CI1 CI TR HZ SLP197 DENSITY ALT 4500FT
9:00 pm
V
64 °F 10 mi - 040° 040° 3 kt METAR CYYC 010300Z 04003KT 010V100 10SM SCT097 18/09 A3010 RMK AC3 HZ SLP196 DENSITY ALT 4600FT
8:00 pm
V
68 °F 10 mi - Var Var 2 kt METAR CYYC 010200Z VRB02KT 10SM FEW110 20/06 A3011 RMK AC2 HZ SLP198 DENSITY ALT 4900FT
7:00 pm
V
68 °F 15 mi - Var 000° 0 kt METAR CYYC 010100Z 00000KT 15SM FEW110 20/04 A3012 RMK AC2 SLP203 DENSITY ALT 4900FT
6:00 pm
V
70 °F 15 mi - 010° 010° 4 kt METAR CYYC 010000Z 01004KT 240V050 15SM FEW097 SCT110 21/06 A3013 RMK AC1AC2 SLP209 DENSITY ALT 4900FT
5:00 pm
V
68 °F 20 mi 11,000 ft Var 000° 0 kt METAR CYYC 302300Z 00000KT 20SM FEW059 SCT086 BKN110 20/04 A3014 RMK SC1AC2AC2 SLP212 DENSITY ALT 4800FT
4:00 pm
V
68 °F 20 mi 5,900 ft 350° 350° 5 kt METAR CYYC 302200Z 35005KT 20SM BKN059 BKN110 20/06 A3015 RMK SC5AC2 TCU ASOCTD SLP215 DENSITY ALT 4800FT
3:00 pm
V
64 °F 20 mi 5,500 ft 350° 350° 13 - 20 kt METAR CYYC 302100Z 35013G20KT 20SM BKN055 BKN110 18/09 A3015 RMK SC6AC1 TCU ASOCTD SLP219 DENSITY ALT 4600FT
2:00 pm
V
68 °F 20 mi 5,600 ft 290° 290° 5 kt METAR CYYC 302000Z 29005KT 270V340 20SM BKN056TCU BKN076 20/04 A3015 RMK TCU5AC1 SH DIST NW SLP214 DENSITY ALT 4800FT
Older data

Download our app

Easy access to all aviation weather on your mobile phone and tablet.
With many features not available on the website, like offline support and a personal airport list.

We and third parties follow your internet behavior on our website with cookies. If you continue, we assume you agree with our cookie policy. Learn more